sensor_id;sensor_type;location;lat;lon;timestamp;temperature;humidity
50758;DHT22;36732;47.980;11.652;2022-08-24T00:01:16;20.70;47.30
50758;DHT22;36732;47.980;11.652;2022-08-24T00:03:43;20.70;47.40
50758;DHT22;36732;47.980;11.652;2022-08-24T00:06:13;20.70;47.50
50758;DHT22;36732;47.980;11.652;2022-08-24T00:08:41;20.70;47.50
50758;DHT22;36732;47.980;11.652;2022-08-24T00:11:07;20.60;47.40
50758;DHT22;36732;47.980;11.652;2022-08-24T00:13:34;20.60;47.40
50758;DHT22;36732;47.980;11.652;2022-08-24T00:16:00;20.60;47.50
50758;DHT22;36732;47.980;11.652;2022-08-24T00:18:26;20.60;47.40
50758;DHT22;36732;47.980;11.652;2022-08-24T00:20:53;20.60;47.50
50758;DHT22;36732;47.980;11.652;2022-08-24T00:23:18;20.60;47.50
50758;DHT22;36732;47.980;11.652;2022-08-24T00:25:44;20.60;47.60
50758;DHT22;36732;47.980;11.652;2022-08-24T00:28:11;20.60;47.60
50758;DHT22;36732;47.980;11.652;2022-08-24T00:30:37;20.50;47.30
50758;DHT22;36732;47.980;11.652;2022-08-24T00:33:03;20.50;47.30
50758;DHT22;36732;47.980;11.652;2022-08-24T00:35:29;20.50;48.20
50758;DHT22;36732;47.980;11.652;2022-08-24T00:37:56;20.50;47.50
50758;DHT22;36732;47.980;11.652;2022-08-24T00:40:34;20.40;47.40
50758;DHT22;36732;47.980;11.652;2022-08-24T00:43:04;20.40;47.60
50758;DHT22;36732;47.980;11.652;2022-08-24T00:45:35;20.40;47.40
50758;DHT22;36732;47.980;11.652;2022-08-24T00:48:12;20.40;47.50
50758;DHT22;36732;47.980;11.652;2022-08-24T00:50:44;20.30;47.50
50758;DHT22;36732;47.980;11.652;2022-08-24T00:53:26;20.30;47.50
50758;DHT22;36732;47.980;11.652;2022-08-24T00:56:02;20.30;47.50
50758;DHT22;36732;47.980;11.652;2022-08-24T00:58:48;20.30;47.50
50758;DHT22;36732;47.980;11.652;2022-08-24T01:01:16;20.20;47.70
50758;DHT22;36732;47.980;11.652;2022-08-24T01:03:43;20.20;47.60
50758;DHT22;36732;47.980;11.652;2022-08-24T01:06:11;20.20;47.80
50758;DHT22;36732;47.980;11.652;2022-08-24T01:08:38;20.20;47.80
50758;DHT22;36732;47.980;11.652;2022-08-24T01:11:09;20.20;47.70
50758;DHT22;36732;47.980;11.652;2022-08-24T01:13:38;20.10;47.80
50758;DHT22;36732;47.980;11.652;2022-08-24T01:16:07;20.10;47.60
50758;DHT22;36732;47.980;11.652;2022-08-24T01:18:34;20.10;47.70
50758;DHT22;36732;47.980;11.652;2022-08-24T01:21:45;20.10;47.70
50758;DHT22;36732;47.980;11.652;2022-08-24T01:24:34;20.10;47.90
50758;DHT22;36732;47.980;11.652;2022-08-24T01:27:00;20.00;47.60
50758;DHT22;36732;47.980;11.652;2022-08-24T01:29:27;20.00;47.60
50758;DHT22;36732;47.980;11.652;2022-08-24T01:31:56;20.00;47.70
50758;DHT22;36732;47.980;11.652;2022-08-24T01:34:23;20.00;47.90
50758;DHT22;36732;47.980;11.652;2022-08-24T01:36:51;19.90;47.90
50758;DHT22;36732;47.980;11.652;2022-08-24T01:39:28;19.90;47.80
50758;DHT22;36732;47.980;11.652;2022-08-24T01:41:56;19.90;48.10
50758;DHT22;36732;47.980;11.652;2022-08-24T01:44:24;19.90;47.80
50758;DHT22;36732;47.980;11.652;2022-08-24T01:46:53;19.90;47.90
50758;DHT22;36732;47.980;11.652;2022-08-24T01:49:24;19.80;47.90
50758;DHT22;36732;47.980;11.652;2022-08-24T01:51:51;19.80;47.90
50758;DHT22;36732;47.980;11.652;2022-08-24T01:54:17;19.80;48.00
50758;DHT22;36732;47.980;11.652;2022-08-24T01:56:43;19.80;48.00
50758;DHT22;36732;47.980;11.652;2022-08-24T01:59:10;19.80;48.00
50758;DHT22;36732;47.980;11.652;2022-08-24T02:01:41;19.70;48.00
50758;DHT22;36732;47.980;11.652;2022-08-24T02:04:10;19.70;48.10
50758;DHT22;36732;47.980;11.652;2022-08-24T02:06:37;19.70;47.90
50758;DHT22;36732;47.980;11.652;2022-08-24T02:09:03;19.70;47.80
50758;DHT22;36732;47.980;11.652;2022-08-24T02:11:30;19.70;48.10
50758;DHT22;36732;47.980;11.652;2022-08-24T02:13:56;19.70;48.10
50758;DHT22;36732;47.980;11.652;2022-08-24T02:16:22;19.60;48.00
50758;DHT22;36732;47.980;11.652;2022-08-24T02:18:49;19.60;48.10
50758;DHT22;36732;47.980;11.652;2022-08-24T02:21:15;19.60;48.20
50758;DHT22;36732;47.980;11.652;2022-08-24T02:23:42;19.60;48.20
50758;DHT22;36732;47.980;11.652;2022-08-24T02:26:09;19.60;48.30
50758;DHT22;36732;47.980;11.652;2022-08-24T02:28:36;19.60;48.40
50758;DHT22;36732;47.980;11.652;2022-08-24T02:31:04;19.60;48.50
50758;DHT22;36732;47.980;11.652;2022-08-24T02:33:32;19.50;48.40
50758;DHT22;36732;47.980;11.652;2022-08-24T02:35:59;19.50;48.40
50758;DHT22;36732;47.980;11.652;2022-08-24T02:38:25;19.50;48.30
50758;DHT22;36732;47.980;11.652;2022-08-24T02:40:50;19.50;48.30
50758;DHT22;36732;47.980;11.652;2022-08-24T02:43:16;19.40;48.40
50758;DHT22;36732;47.980;11.652;2022-08-24T02:45:44;19.50;48.50
50758;DHT22;36732;47.980;11.652;2022-08-24T02:48:13;19.40;48.50
50758;DHT22;36732;47.980;11.652;2022-08-24T02:50:41;19.40;48.50
50758;DHT22;36732;47.980;11.652;2022-08-24T02:53:12;19.30;48.60
50758;DHT22;36732;47.980;11.652;2022-08-24T02:55:41;19.30;48.70
50758;DHT22;36732;47.980;11.652;2022-08-24T02:58:08;19.30;48.60
50758;DHT22;36732;47.980;11.652;2022-08-24T03:00:35;19.20;48.60
50758;DHT22;36732;47.980;11.652;2022-08-24T03:03:03;19.20;48.60
50758;DHT22;36732;47.980;11.652;2022-08-24T03:05:31;19.20;48.70
50758;DHT22;36732;47.980;11.652;2022-08-24T03:07:57;19.10;48.60
50758;DHT22;36732;47.980;11.652;2022-08-24T03:10:22;19.10;49.30
50758;DHT22;36732;47.980;11.652;2022-08-24T03:12:49;19.10;48.70
50758;DHT22;36732;47.980;11.652;2022-08-24T03:15:16;19.10;48.70
50758;DHT22;36732;47.980;11.652;2022-08-24T03:17:43;19.00;48.70
50758;DHT22;36732;47.980;11.652;2022-08-24T03:20:12;19.00;48.70
50758;DHT22;36732;47.980;11.652;2022-08-24T03:22:39;19.00;48.90
50758;DHT22;36732;47.980;11.652;2022-08-24T03:25:06;19.00;48.70
50758;DHT22;36732;47.980;11.652;2022-08-24T03:27:33;18.90;48.80
50758;DHT22;36732;47.980;11.652;2022-08-24T03:29:59;18.90;48.90
50758;DHT22;36732;47.980;11.652;2022-08-24T03:32:26;18.90;48.80
50758;DHT22;36732;47.980;11.652;2022-08-24T03:34:52;18.80;48.90
50758;DHT22;36732;47.980;11.652;2022-08-24T03:37:19;18.80;49.00
50758;DHT22;36732;47.980;11.652;2022-08-24T03:39:45;18.80;49.00
50758;DHT22;36732;47.980;11.652;2022-08-24T03:42:15;18.80;49.10
50758;DHT22;36732;47.980;11.652;2022-08-24T03:44:41;18.80;49.10
50758;DHT22;36732;47.980;11.652;2022-08-24T03:47:07;18.80;49.20
50758;DHT22;36732;47.980;11.652;2022-08-24T03:49:35;18.70;49.20
50758;DHT22;36732;47.980;11.652;2022-08-24T03:52:03;18.70;49.20
50758;DHT22;36732;47.980;11.652;2022-08-24T03:54:31;18.70;49.10
50758;DHT22;36732;47.980;11.652;2022-08-24T03:56:57;18.70;49.10
50758;DHT22;36732;47.980;11.652;2022-08-24T03:59:26;18.70;49.00
50758;DHT22;36732;47.980;11.652;2022-08-24T04:01:51;18.70;49.00
50758;DHT22;36732;47.980;11.652;2022-08-24T04:04:20;18.60;49.00
50758;DHT22;36732;47.980;11.652;2022-08-24T04:06:46;18.60;49.00
50758;DHT22;36732;47.980;11.652;2022-08-24T04:09:13;18.60;49.00
50758;DHT22;36732;47.980;11.652;2022-08-24T04:11:40;18.50;49.00
50758;DHT22;36732;47.980;11.652;2022-08-24T04:14:08;18.50;49.00
50758;DHT22;36732;47.980;11.652;2022-08-24T04:16:34;18.50;48.90
50758;DHT22;36732;47.980;11.652;2022-08-24T04:19:00;18.40;49.20
50758;DHT22;36732;47.980;11.652;2022-08-24T04:21:29;18.40;49.20
50758;DHT22;36732;47.980;11.652;2022-08-24T04:23:57;18.40;49.30
50758;DHT22;36732;47.980;11.652;2022-08-24T04:26:26;18.40;49.30
50758;DHT22;36732;47.980;11.652;2022-08-24T04:28:53;18.40;49.30
50758;DHT22;36732;47.980;11.652;2022-08-24T04:31:19;18.30;49.40
50758;DHT22;36732;47.980;11.652;2022-08-24T04:33:45;18.30;49.40
50758;DHT22;36732;47.980;11.652;2022-08-24T04:36:15;18.30;49.50
50758;DHT22;36732;47.980;11.652;2022-08-24T04:38:42;18.30;49.50
50758;DHT22;36732;47.980;11.652;2022-08-24T04:41:10;18.30;49.60
50758;DHT22;36732;47.980;11.652;2022-08-24T04:43:40;18.20;49.60
50758;DHT22;36732;47.980;11.652;2022-08-24T04:46:12;18.20;49.70
50758;DHT22;36732;47.980;11.652;2022-08-24T04:48:40;18.20;49.80
50758;DHT22;36732;47.980;11.652;2022-08-24T04:51:08;18.20;49.80
50758;DHT22;36732;47.980;11.652;2022-08-24T04:53:35;18.20;49.80
50758;DHT22;36732;47.980;11.652;2022-08-24T04:56:02;18.20;49.80
50758;DHT22;36732;47.980;11.652;2022-08-24T04:58:29;18.20;50.00
50758;DHT22;36732;47.980;11.652;2022-08-24T05:00:55;18.20;50.10
50758;DHT22;36732;47.980;11.652;2022-08-24T05:03:21;18.20;50.30
50758;DHT22;36732;47.980;11.652;2022-08-24T05:05:49;18.30;51.00
50758;DHT22;36732;47.980;11.652;2022-08-24T05:08:18;18.50;51.50
50758;DHT22;36732;47.980;11.652;2022-08-24T05:10:46;18.80;51.60
50758;DHT22;36732;47.980;11.652;2022-08-24T05:13:16;19.30;51.50
50758;DHT22;36732;47.980;11.652;2022-08-24T05:15:45;19.90;51.00
50758;DHT22;36732;47.980;11.652;2022-08-24T05:18:13;20.50;50.40
50758;DHT22;36732;47.980;11.652;2022-08-24T05:20:42;21.00;49.70
50758;DHT22;36732;47.980;11.652;2022-08-24T05:23:10;21.60;48.90
50758;DHT22;36732;47.980;11.652;2022-08-24T05:25:37;22.30;48.20
50758;DHT22;36732;47.980;11.652;2022-08-24T05:28:04;22.80;47.50
50758;DHT22;36732;47.980;11.652;2022-08-24T05:30:30;23.40;47.00
50758;DHT22;36732;47.980;11.652;2022-08-24T05:32:56;23.90;46.20
50758;DHT22;36732;47.980;11.652;2022-08-24T05:35:22;24.40;45.20
50758;DHT22;36732;47.980;11.652;2022-08-24T05:37:48;24.70;44.00
50758;DHT22;36732;47.980;11.652;2022-08-24T05:40:16;24.90;43.30
50758;DHT22;36732;47.980;11.652;2022-08-24T05:42:43;24.90;42.80
50758;DHT22;36732;47.980;11.652;2022-08-24T05:45:10;24.80;43.30
50758;DHT22;36732;47.980;11.652;2022-08-24T05:47:37;24.80;43.80
50758;DHT22;36732;47.980;11.652;2022-08-24T05:50:04;25.00;44.20
50758;DHT22;36732;47.980;11.652;2022-08-24T05:52:30;25.30;44.10
50758;DHT22;36732;47.980;11.652;2022-08-24T05:54:57;25.80;44.10
50758;DHT22;36732;47.980;11.652;2022-08-24T05:57:25;26.30;43.70
50758;DHT22;36732;47.980;11.652;2022-08-24T05:59:51;26.80;43.30
50758;DHT22;36732;47.980;11.652;2022-08-24T06:02:18;27.30;43.40
50758;DHT22;36732;47.980;11.652;2022-08-24T06:04:44;27.90;42.30
50758;DHT22;36732;47.980;11.652;2022-08-24T06:07:11;28.40;41.50
50758;DHT22;36732;47.980;11.652;2022-08-24T06:09:39;28.90;40.80
50758;DHT22;36732;47.980;11.652;2022-08-24T06:12:07;29.30;39.70
50758;DHT22;36732;47.980;11.652;2022-08-24T06:14:34;29.50;38.90
50758;DHT22;36732;47.980;11.652;2022-08-24T06:17:02;29.60;38.50
50758;DHT22;36732;47.980;11.652;2022-08-24T06:19:30;29.40;38.00
50758;DHT22;36732;47.980;11.652;2022-08-24T06:21:57;29.20;38.00
50758;DHT22;36732;47.980;11.652;2022-08-24T06:24:23;28.90;37.70
50758;DHT22;36732;47.980;11.652;2022-08-24T06:27:14;28.50;37.60
50758;DHT22;36732;47.980;11.652;2022-08-24T06:29:56;28.00;37.80
50758;DHT22;36732;47.980;11.652;2022-08-24T06:32:23;27.60;37.90
50758;DHT22;36732;47.980;11.652;2022-08-24T06:34:53;27.20;38.50
50758;DHT22;36732;47.980;11.652;2022-08-24T06:37:20;26.90;38.90
50758;DHT22;36732;47.980;11.652;2022-08-24T06:39:53;26.50;39.20
50758;DHT22;36732;47.980;11.652;2022-08-24T06:42:19;26.20;39.70
50758;DHT22;36732;47.980;11.652;2022-08-24T06:44:45;25.90;40.40
50758;DHT22;36732;47.980;11.652;2022-08-24T06:47:11;25.70;40.80
50758;DHT22;36732;47.980;11.652;2022-08-24T06:49:37;25.40;41.10
50758;DHT22;36732;47.980;11.652;2022-08-24T06:52:06;25.20;41.30
50758;DHT22;36732;47.980;11.652;2022-08-24T06:54:32;24.90;41.40
50758;DHT22;36732;47.980;11.652;2022-08-24T06:56:58;24.70;41.50
50758;DHT22;36732;47.980;11.652;2022-08-24T06:59:27;24.60;41.70
50758;DHT22;36732;47.980;11.652;2022-08-24T07:01:54;24.40;42.00
50758;DHT22;36732;47.980;11.652;2022-08-24T07:04:21;24.30;42.40
50758;DHT22;36732;47.980;11.652;2022-08-24T07:06:49;24.10;42.70
50758;DHT22;36732;47.980;11.652;2022-08-24T07:09:15;24.00;43.30
50758;DHT22;36732;47.980;11.652;2022-08-24T07:11:41;23.90;43.60
50758;DHT22;36732;47.980;11.652;2022-08-24T07:14:07;23.80;43.80
50758;DHT22;36732;47.980;11.652;2022-08-24T07:16:33;23.70;43.90
50758;DHT22;36732;47.980;11.652;2022-08-24T07:19:01;23.60;44.10
50758;DHT22;36732;47.980;11.652;2022-08-24T07:21:29;23.60;44.10
50758;DHT22;36732;47.980;11.652;2022-08-24T07:23:57;23.50;44.00
50758;DHT22;36732;47.980;11.652;2022-08-24T07:26:26;23.40;44.20
50758;DHT22;36732;47.980;11.652;2022-08-24T07:29:07;23.40;44.20
50758;DHT22;36732;47.980;11.652;2022-08-24T07:31:37;23.30;44.20
50758;DHT22;36732;47.980;11.652;2022-08-24T07:34:05;23.20;45.00
50758;DHT22;36732;47.980;11.652;2022-08-24T07:36:33;23.20;44.30
50758;DHT22;36732;47.980;11.652;2022-08-24T07:38:59;23.10;44.40
50758;DHT22;36732;47.980;11.652;2022-08-24T07:41:25;23.20;44.70
50758;DHT22;36732;47.980;11.652;2022-08-24T07:43:55;23.10;44.80
50758;DHT22;36732;47.980;11.652;2022-08-24T07:46:21;23.10;44.80
50758;DHT22;36732;47.980;11.652;2022-08-24T07:48:47;23.00;45.00
50758;DHT22;36732;47.980;11.652;2022-08-24T07:51:15;23.00;45.20
50758;DHT22;36732;47.980;11.652;2022-08-24T07:53:42;23.00;45.30
50758;DHT22;36732;47.980;11.652;2022-08-24T07:56:09;23.00;45.40
50758;DHT22;36732;47.980;11.652;2022-08-24T07:58:35;23.00;45.50
50758;DHT22;36732;47.980;11.652;2022-08-24T08:01:03;22.90;45.40
50758;DHT22;36732;47.980;11.652;2022-08-24T08:03:31;22.90;45.50
50758;DHT22;36732;47.980;11.652;2022-08-24T08:06:01;22.90;45.50
50758;DHT22;36732;47.980;11.652;2022-08-24T08:08:29;22.90;45.60
50758;DHT22;36732;47.980;11.652;2022-08-24T08:10:55;22.90;45.60
50758;DHT22;36732;47.980;11.652;2022-08-24T08:13:21;22.90;45.50
50758;DHT22;36732;47.980;11.652;2022-08-24T08:15:47;22.90;45.50
50758;DHT22;36732;47.980;11.652;2022-08-24T08:18:13;22.90;45.50
50758;DHT22;36732;47.980;11.652;2022-08-24T08:20:41;22.90;45.60
50758;DHT22;36732;47.980;11.652;2022-08-24T08:23:07;22.90;45.60
50758;DHT22;36732;47.980;11.652;2022-08-24T08:25:54;22.90;45.60
50758;DHT22;36732;47.980;11.652;2022-08-24T08:28:22;22.90;45.60
50758;DHT22;36732;47.980;11.652;2022-08-24T08:30:49;23.00;45.70
50758;DHT22;36732;47.980;11.652;2022-08-24T08:33:16;22.90;45.70
50758;DHT22;36732;47.980;11.652;2022-08-24T08:35:42;22.90;45.80
50758;DHT22;36732;47.980;11.652;2022-08-24T08:38:09;23.00;45.90
50758;DHT22;36732;47.980;11.652;2022-08-24T08:43:41;22.90;46.00
50758;DHT22;36732;47.980;11.652;2022-08-24T08:55:41;23.00;45.90
50758;DHT22;36732;47.980;11.652;2022-08-24T09:12:54;23.00;46.00
50758;DHT22;36732;47.980;11.652;2022-08-24T09:18:54;23.10;46.20
50758;DHT22;36732;47.980;11.652;2022-08-24T09:36:57;23.10;45.40
50758;DHT22;36732;47.980;11.652;2022-08-24T09:39:34;23.20;45.50
50758;DHT22;36732;47.980;11.652;2022-08-24T09:57:53;23.30;45.60
50758;DHT22;36732;47.980;11.652;2022-08-24T10:00:27;23.40;45.60
50758;DHT22;36732;47.980;11.652;2022-08-24T10:08:54;23.40;45.40
50758;DHT22;36732;47.980;11.652;2022-08-24T10:14:52;23.40;45.50
50758;DHT22;36732;47.980;11.652;2022-08-24T10:30:56;23.50;45.70
50758;DHT22;36732;47.980;11.652;2022-08-24T10:33:24;23.50;45.80
50758;DHT22;36732;47.980;11.652;2022-08-24T10:36:17;23.60;45.80
50758;DHT22;36732;47.980;11.652;2022-08-24T10:48:36;23.70;45.90
50758;DHT22;36732;47.980;11.652;2022-08-24T10:54:33;23.80;45.50
50758;DHT22;36732;47.980;11.652;2022-08-24T11:00:06;23.80;45.60
50758;DHT22;36732;47.980;11.652;2022-08-24T11:02:45;23.80;45.60
50758;DHT22;36732;47.980;11.652;2022-08-24T11:05:29;23.90;45.50
50758;DHT22;36732;47.980;11.652;2022-08-24T11:08:01;23.90;45.50
50758;DHT22;36732;47.980;11.652;2022-08-24T11:10:37;23.90;45.50
50758;DHT22;36732;47.980;11.652;2022-08-24T11:13:25;24.00;45.30
50758;DHT22;36732;47.980;11.652;2022-08-24T11:15:57;24.00;45.20
50758;DHT22;36732;47.980;11.652;2022-08-24T11:18:24;24.00;45.20
50758;DHT22;36732;47.980;11.652;2022-08-24T11:20:53;24.10;45.40
50758;DHT22;36732;47.980;11.652;2022-08-24T11:23:35;24.10;45.10
50758;DHT22;36732;47.980;11.652;2022-08-24T11:28:38;24.20;45.10
50758;DHT22;36732;47.980;11.652;2022-08-24T11:31:12;24.20;45.30
50758;DHT22;36732;47.980;11.652;2022-08-24T11:33:47;24.20;45.30
50758;DHT22;36732;47.980;11.652;2022-08-24T11:36:21;24.20;45.10
50758;DHT22;36732;47.980;11.652;2022-08-24T11:39:16;24.20;44.90
50758;DHT22;36732;47.980;11.652;2022-08-24T11:44:54;24.30;44.90
50758;DHT22;36732;47.980;11.652;2022-08-24T11:47:44;24.30;44.60
50758;DHT22;36732;47.980;11.652;2022-08-24T11:58:52;24.30;44.70
50758;DHT22;36732;47.980;11.652;2022-08-24T12:01:33;24.40;44.80
50758;DHT22;36732;47.980;11.652;2022-08-24T12:12:27;24.40;44.10
50758;DHT22;36732;47.980;11.652;2022-08-24T12:15:10;24.50;44.40
50758;DHT22;36732;47.980;11.652;2022-08-24T12:20:44;24.50;44.80
50758;DHT22;36732;47.980;11.652;2022-08-24T12:23:36;24.50;44.70
50758;DHT22;36732;47.980;11.652;2022-08-24T12:26:16;24.60;44.70
50758;DHT22;36732;47.980;11.652;2022-08-24T12:28:52;24.60;44.80
50758;DHT22;36732;47.980;11.652;2022-08-24T12:31:42;24.60;44.80
50758;DHT22;36732;47.980;11.652;2022-08-24T12:34:41;24.60;44.90
50758;DHT22;36732;47.980;11.652;2022-08-24T12:37:16;24.70;44.70
50758;DHT22;36732;47.980;11.652;2022-08-24T12:40:10;24.70;44.50
50758;DHT22;36732;47.980;11.652;2022-08-24T12:42:47;24.70;44.50
50758;DHT22;36732;47.980;11.652;2022-08-24T12:45:16;24.70;44.40
50758;DHT22;36732;47.980;11.652;2022-08-24T12:59:51;24.80;44.30
50758;DHT22;36732;47.980;11.652;2022-08-24T13:18:45;25.00;44.80
50758;DHT22;36732;47.980;11.652;2022-08-24T13:25:58;25.10;45.70
50758;DHT22;36732;47.980;11.652;2022-08-24T13:28:41;25.10;45.70
50758;DHT22;36732;47.980;11.652;2022-08-24T13:31:25;25.20;45.80
50758;DHT22;36732;47.980;11.652;2022-08-24T13:33:59;25.10;45.40
50758;DHT22;36732;47.980;11.652;2022-08-24T13:43:00;25.20;45.50
50758;DHT22;36732;47.980;11.652;2022-08-24T13:45:50;25.30;46.80
50758;DHT22;36732;47.980;11.652;2022-08-24T13:48:36;25.20;46.80
50758;DHT22;36732;47.980;11.652;2022-08-24T13:51:19;25.30;46.60
50758;DHT22;36732;47.980;11.652;2022-08-24T13:54:09;25.30;46.50
50758;DHT22;36732;47.980;11.652;2022-08-24T14:03:14;25.60;46.90
50758;DHT22;36732;47.980;11.652;2022-08-24T14:11:56;26.00;46.50
50758;DHT22;36732;47.980;11.652;2022-08-24T14:17:51;26.40;46.10
50758;DHT22;36732;47.980;11.652;2022-08-24T14:29:39;26.90;45.30
50758;DHT22;36732;47.980;11.652;2022-08-24T14:38:00;27.20;44.80
50758;DHT22;36732;47.980;11.652;2022-08-24T14:40:31;27.20;44.40
50758;DHT22;36732;47.980;11.652;2022-08-24T14:43:23;27.20;44.60
50758;DHT22;36732;47.980;11.652;2022-08-24T14:49:04;27.30;44.20
50758;DHT22;36732;47.980;11.652;2022-08-24T14:55:08;27.40;44.10
50758;DHT22;36732;47.980;11.652;2022-08-24T14:58:06;27.40;43.80
50758;DHT22;36732;47.980;11.652;2022-08-24T15:06:55;27.50;43.60
50758;DHT22;36732;47.980;11.652;2022-08-24T15:09:30;27.50;43.50
50758;DHT22;36732;47.980;11.652;2022-08-24T15:17:58;27.50;43.50
50758;DHT22;36732;47.980;11.652;2022-08-24T15:23:44;27.50;43.70
50758;DHT22;36732;47.980;11.652;2022-08-24T15:29:12;27.40;43.20
50758;DHT22;36732;47.980;11.652;2022-08-24T15:32:12;27.50;43.20
50758;DHT22;36732;47.980;11.652;2022-08-24T15:37:24;27.40;42.80
50758;DHT22;36732;47.980;11.652;2022-08-24T15:39:53;27.40;43.00
50758;DHT22;36732;47.980;11.652;2022-08-24T15:42:19;27.30;43.30
50758;DHT22;36732;47.980;11.652;2022-08-24T15:44:47;27.30;43.50
50758;DHT22;36732;47.980;11.652;2022-08-24T15:52:59;27.30;43.70
50758;DHT22;36732;47.980;11.652;2022-08-24T15:55:42;27.30;43.70
50758;DHT22;36732;47.980;11.652;2022-08-24T16:00:43;27.30;43.50
50758;DHT22;36732;47.980;11.652;2022-08-24T16:04:01;27.20;43.40
50758;DHT22;36732;47.980;11.652;2022-08-24T16:11:58;27.10;43.40
50758;DHT22;36732;47.980;11.652;2022-08-24T16:14:37;27.10;43.60
50758;DHT22;36732;47.980;11.652;2022-08-24T16:20:06;27.10;43.40
50758;DHT22;36732;47.980;11.652;2022-08-24T16:23:03;27.10;43.50
50758;DHT22;36732;47.980;11.652;2022-08-24T16:25:39;27.00;43.50
50758;DHT22;36732;47.980;11.652;2022-08-24T16:30:49;27.00;43.60
50758;DHT22;36732;47.980;11.652;2022-08-24T16:36:00;27.00;43.90
50758;DHT22;36732;47.980;11.652;2022-08-24T16:38:29;27.00;44.00
50758;DHT22;36732;47.980;11.652;2022-08-24T16:41:02;27.00;44.00
50758;DHT22;36732;47.980;11.652;2022-08-24T16:43:30;27.00;44.80
50758;DHT22;36732;47.980;11.652;2022-08-24T16:45:59;27.00;44.10
50758;DHT22;36732;47.980;11.652;2022-08-24T16:48:25;27.00;44.10
50758;DHT22;36732;47.980;11.652;2022-08-24T16:50:52;27.00;44.00
50758;DHT22;36732;47.980;11.652;2022-08-24T16:53:18;27.00;44.00
50758;DHT22;36732;47.980;11.652;2022-08-24T16:55:43;27.00;44.00
50758;DHT22;36732;47.980;11.652;2022-08-24T16:58:09;27.00;44.00
50758;DHT22;36732;47.980;11.652;2022-08-24T17:00:35;27.00;44.00
50758;DHT22;36732;47.980;11.652;2022-08-24T17:03:02;27.00;44.00
50758;DHT22;36732;47.980;11.652;2022-08-24T17:05:27;27.00;44.10
50758;DHT22;36732;47.980;11.652;2022-08-24T17:07:54;26.90;44.10
50758;DHT22;36732;47.980;11.652;2022-08-24T17:10:20;26.90;44.20
50758;DHT22;36732;47.980;11.652;2022-08-24T17:12:48;26.90;44.40
50758;DHT22;36732;47.980;11.652;2022-08-24T17:15:14;26.90;44.50
50758;DHT22;36732;47.980;11.652;2022-08-24T17:17:43;26.90;44.40
50758;DHT22;36732;47.980;11.652;2022-08-24T17:20:31;26.90;44.50
50758;DHT22;36732;47.980;11.652;2022-08-24T17:22:58;26.80;44.50
50758;DHT22;36732;47.980;11.652;2022-08-24T17:25:25;26.80;44.50
50758;DHT22;36732;47.980;11.652;2022-08-24T17:27:52;26.80;44.60
50758;DHT22;36732;47.980;11.652;2022-08-24T17:30:19;26.80;45.30
50758;DHT22;36732;47.980;11.652;2022-08-24T17:32:47;26.80;44.80
50758;DHT22;36732;47.980;11.652;2022-08-24T17:35:13;26.70;44.80
50758;DHT22;36732;47.980;11.652;2022-08-24T17:37:39;26.70;44.80
50758;DHT22;36732;47.980;11.652;2022-08-24T17:40:10;26.70;44.90
50758;DHT22;36732;47.980;11.652;2022-08-24T17:42:37;26.60;45.10
50758;DHT22;36732;47.980;11.652;2022-08-24T17:45:03;26.60;45.10
50758;DHT22;36732;47.980;11.652;2022-08-24T17:47:31;26.60;45.20
50758;DHT22;36732;47.980;11.652;2022-08-24T17:49:58;26.60;45.30
50758;DHT22;36732;47.980;11.652;2022-08-24T17:52:25;26.70;45.40
50758;DHT22;36732;47.980;11.652;2022-08-24T17:54:51;26.60;45.50
50758;DHT22;36732;47.980;11.652;2022-08-24T17:57:17;26.70;45.60
50758;DHT22;36732;47.980;11.652;2022-08-24T17:59:51;26.70;45.60
50758;DHT22;36732;47.980;11.652;2022-08-24T18:02:18;26.70;45.70
50758;DHT22;36732;47.980;11.652;2022-08-24T18:04:44;26.70;45.80
50758;DHT22;36732;47.980;11.652;2022-08-24T18:07:18;26.70;45.70
50758;DHT22;36732;47.980;11.652;2022-08-24T18:09:54;26.70;46.10
50758;DHT22;36732;47.980;11.652;2022-08-24T18:12:23;26.70;46.10
50758;DHT22;36732;47.980;11.652;2022-08-24T18:14:50;26.70;46.10
50758;DHT22;36732;47.980;11.652;2022-08-24T18:17:31;26.70;46.00
50758;DHT22;36732;47.980;11.652;2022-08-24T18:20:01;26.70;46.10
50758;DHT22;36732;47.980;11.652;2022-08-24T18:22:27;26.60;46.20
50758;DHT22;36732;47.980;11.652;2022-08-24T18:24:53;26.60;46.20
50758;DHT22;36732;47.980;11.652;2022-08-24T18:27:29;26.60;46.30
50758;DHT22;36732;47.980;11.652;2022-08-24T18:30:00;26.60;46.60
50758;DHT22;36732;47.980;11.652;2022-08-24T18:32:28;26.60;46.50
50758;DHT22;36732;47.980;11.652;2022-08-24T18:34:54;26.50;46.20
50758;DHT22;36732;47.980;11.652;2022-08-24T18:37:19;26.50;46.20
50758;DHT22;36732;47.980;11.652;2022-08-24T18:39:45;26.40;46.20
50758;DHT22;36732;47.980;11.652;2022-08-24T18:42:11;26.40;46.30
50758;DHT22;36732;47.980;11.652;2022-08-24T18:44:38;26.30;46.40
50758;DHT22;36732;47.980;11.652;2022-08-24T18:47:04;26.30;46.50
50758;DHT22;36732;47.980;11.652;2022-08-24T18:49:30;26.20;47.10
50758;DHT22;36732;47.980;11.652;2022-08-24T18:51:56;26.20;46.70
50758;DHT22;36732;47.980;11.652;2022-08-24T18:54:27;26.10;46.70
50758;DHT22;36732;47.980;11.652;2022-08-24T18:57:00;26.10;47.00
50758;DHT22;36732;47.980;11.652;2022-08-24T18:59:26;26.00;46.90
50758;DHT22;36732;47.980;11.652;2022-08-24T19:01:52;26.00;47.00
50758;DHT22;36732;47.980;11.652;2022-08-24T19:04:44;25.90;47.00
50758;DHT22;36732;47.980;11.652;2022-08-24T19:07:11;25.80;47.30
50758;DHT22;36732;47.980;11.652;2022-08-24T19:09:37;25.80;47.20
50758;DHT22;36732;47.980;11.652;2022-08-24T19:12:03;25.80;47.30
50758;DHT22;36732;47.980;11.652;2022-08-24T19:14:30;25.70;47.50
50758;DHT22;36732;47.980;11.652;2022-08-24T19:16:56;25.60;48.00
50758;DHT22;36732;47.980;11.652;2022-08-24T19:19:22;25.60;47.80
50758;DHT22;36732;47.980;11.652;2022-08-24T19:21:48;25.60;48.00
50758;DHT22;36732;47.980;11.652;2022-08-24T19:24:24;25.50;48.00
50758;DHT22;36732;47.980;11.652;2022-08-24T19:26:51;25.40;48.50
50758;DHT22;36732;47.980;11.652;2022-08-24T19:29:18;25.40;48.20
50758;DHT22;36732;47.980;11.652;2022-08-24T19:31:43;25.40;48.30
50758;DHT22;36732;47.980;11.652;2022-08-24T19:34:09;25.30;48.30
50758;DHT22;36732;47.980;11.652;2022-08-24T19:36:36;25.30;48.50
50758;DHT22;36732;47.980;11.652;2022-08-24T19:39:02;25.20;48.40
50758;DHT22;36732;47.980;11.652;2022-08-24T19:41:28;25.10;49.20